»·PEaware :: N234CL KSLC-KPHX

N234CL :: KSLC-KPHX

FLIGHT INFORMATION

Flight Status: Arrived
Operator: Privately registered:
United States
More flights under this callsign
Pilot: Christian L. (6360)
Aircraft: MCDONNELL-DOUGLAS MD-80
(MD80)
More flights by this aircraft type
Origin: KSLC Salt Lake City Intl
United States
Destination: KPHX Phoenix Sky Harbor Intl
United States
More flights between these airports :: More routes between these airports
Route: +FFU9 BCE J11 CORKR MAIER5
File this flight plan on PilotEdge
Remarks:
Altitude:
(Current/Filed)
29,000ft
Speed:
(Current/Filed)
450kts
Departed: 16-Sep-17 11:11 AM
Arrived: 16-Sep-17 12:39 PM
Distance/Time
Traveled:
442nm/1:28
Distance/Time
To Go:
Arrived

Flight Plot

Page will automatically refresh every two minutes.

Flight plan parsing failed; only flown route is shown


Map Options




Map Legend


Flown Route
Filed Route
Departure Airport
Arrival Airport
Navaid (VOR, NDB)
Fix

Horizontal Profiles

Position Reports

Time Latitude Longitude Heading Altitude Ground
Speed
16-Sep-17 10:38 40.788527 -111.980858 282 4222ft 0kts
16-Sep-17 10:39 40.788527 -111.980858 282 4222ft 0kts
16-Sep-17 10:40 40.788527 -111.980858 282 4222ft 0kts
16-Sep-17 10:41 40.788527 -111.980858 282 4222ft 0kts
16-Sep-17 10:42 40.788527 -111.980858 282 4222ft 0kts
16-Sep-17 10:43 40.788527 -111.980858 282 4222ft 0kts
16-Sep-17 10:44 40.788527 -111.980858 282 4222ft 0kts
16-Sep-17 10:45 40.788527 -111.980858 282 4222ft 0kts
16-Sep-17 10:46 40.788527 -111.980858 282 4222ft 0kts
16-Sep-17 10:47 40.788527 -111.980858 282 4222ft 0kts
16-Sep-17 10:48 40.788527 -111.980858 282 4222ft 0kts
16-Sep-17 10:49 40.788527 -111.980858 282 4222ft 0kts
16-Sep-17 10:50 40.788527 -111.980858 282 4222ft 0kts
16-Sep-17 10:51 40.788527 -111.980858 282 4222ft 0kts
16-Sep-17 10:52 40.788527 -111.980858 282 4222ft 0kts
16-Sep-17 10:53 40.788527 -111.980858 282 4222ft 0kts
16-Sep-17 10:54 40.788527 -111.980858 282 4222ft 0kts
16-Sep-17 10:55 40.788527 -111.980858 282 4222ft 0kts
16-Sep-17 10:56 40.788527 -111.980858 282 4222ft 0kts
16-Sep-17 10:57 40.788527 -111.980858 282 4222ft 0kts
16-Sep-17 10:58 40.788527 -111.980858 282 4222ft 0kts
16-Sep-17 10:59 40.788527 -111.980858 282 4222ft 0kts
16-Sep-17 11:00 40.788527 -111.980858 282 4222ft 0kts
16-Sep-17 11:01 40.788527 -111.980858 282 4222ft 0kts
16-Sep-17 11:02 40.788527 -111.980858 282 4222ft 0kts
16-Sep-17 11:03 40.788527 -111.980858 282 4222ft 0kts
16-Sep-17 11:04 40.788527 -111.980858 282 4222ft 0kts
16-Sep-17 11:05 40.788527 -111.980858 282 4222ft 0kts
16-Sep-17 11:06 40.788527 -111.980858 282 4222ft 0kts
16-Sep-17 11:07 40.788527 -111.980858 282 4222ft 0kts
16-Sep-17 11:08 40.788527 -111.980858 282 4222ft 0kts
16-Sep-17 11:09 40.788332 -111.979991 281 4222ft 0kts
16-Sep-17 11:10 40.788332 -111.979991 281 4222ft 0kts
16-Sep-17 11:11 40.788332 -111.979991 281 4222ft 0kts
16-Sep-17 11:12 40.788658 -111.980100 7 4222ft 2kts
16-Sep-17 11:13 40.788789 -111.980072 9 4222ft 0kts
16-Sep-17 11:14 40.790364 -111.977416 72 4222ft 2kts
16-Sep-17 11:15 40.798035 -111.978020 354 4222ft 49kts
16-Sep-17 11:16 40.807278 -111.978755 55 4225ft 0kts
16-Sep-17 11:17 40.807278 -111.978755 55 4225ft 0kts
16-Sep-17 11:18 40.807278 -111.978755 55 4225ft 0kts
16-Sep-17 11:19 40.807278 -111.978755 55 4225ft 0kts
16-Sep-17 11:20 40.807278 -111.978755 55 4225ft 0kts
16-Sep-17 11:21 40.806731 -111.976887 174 4225ft 0kts
16-Sep-17 11:22 40.797485 -111.975778 175 4224ft 135kts
16-Sep-17 11:23 40.746553 -111.970279 177 5646ft 202kts
16-Sep-17 11:24 40.690633 -111.963197 171 8441ft 238kts
16-Sep-17 11:25 40.613599 -111.947510 171 10828ft 325kts
16-Sep-17 11:26 40.517418 -111.943960 184 13113ft 365kts
16-Sep-17 11:27 40.482374 -111.944159 183 14207ft 366kts
16-Sep-17 11:28 40.435929 -111.943776 183 15272ft 377kts
16-Sep-17 11:29 40.330227 -111.941857 184 17643ft 394kts
16-Sep-17 11:30 40.221967 -111.947689 191 17949ft 395kts
16-Sep-17 11:31 40.141324 -111.959875 191 19738ft 403kts
16-Sep-17 11:32 40.028945 -111.976169 192 21972ft 413kts
16-Sep-17 11:33 39.934328 -111.989776 192 23654ft 421kts
16-Sep-17 11:34 39.819775 -112.006277 192 25458ft 430kts
16-Sep-17 11:35 39.700124 -112.023515 193 27099ft 439kts
16-Sep-17 11:36 39.578289 -112.041080 193 28522ft 447kts
16-Sep-17 11:37 39.455399 -112.058920 194 29552ft 444kts
16-Sep-17 11:38 39.333737 -112.076822 193 31147ft 441kts
16-Sep-17 11:39 39.212554 -112.093599 194 32599ft 436kts
16-Sep-17 11:40 39.093625 -112.111103 195 33897ft 432kts
16-Sep-17 11:41 38.994814 -112.125430 194 34918ft 429kts
16-Sep-17 11:42 38.924136 -112.135340 196 35194ft 419kts
16-Sep-17 11:43 38.808901 -112.152672 194 35206ft 419kts
16-Sep-17 11:44 38.693581 -112.168363 194 35205ft 419kts
16-Sep-17 11:45 38.578317 -112.183966 194 35197ft 419kts
16-Sep-17 11:46 38.462307 -112.199663 194 35178ft 419kts
16-Sep-17 11:47 38.347538 -112.215195 194 35177ft 418kts
16-Sep-17 11:48 38.232227 -112.230801 194 35177ft 418kts
16-Sep-17 11:49 38.117278 -112.246358 194 35245ft 417kts
16-Sep-17 11:50 38.002334 -112.261869 194 35258ft 417kts
16-Sep-17 11:51 37.889143 -112.277155 194 35259ft 416kts
16-Sep-17 11:52 37.774281 -112.292944 193 35241ft 425kts
16-Sep-17 11:53 37.654226 -112.307109 188 35259ft 444kts
16-Sep-17 11:54 37.531306 -112.313890 189 35258ft 440kts
16-Sep-17 11:55 37.409551 -112.321250 189 35259ft 440kts
16-Sep-17 11:56 37.287571 -112.328511 189 35261ft 440kts
16-Sep-17 11:57 37.165826 -112.335900 188 35259ft 440kts
16-Sep-17 11:58 37.044043 -112.343237 188 35262ft 440kts
16-Sep-17 11:59 36.922268 -112.350623 188 35201ft 440kts
16-Sep-17 12:00 36.819683 -112.357458 188 35128ft 440kts
16-Sep-17 12:01 36.710200 -112.363954 188 35125ft 440kts
16-Sep-17 12:02 36.588485 -112.371066 188 35122ft 440kts
16-Sep-17 12:03 36.466349 -112.378196 188 35232ft 439kts
16-Sep-17 12:04 36.345475 -112.385272 188 33793ft 439kts
16-Sep-17 12:05 36.223069 -112.392413 188 32072ft 443kts
16-Sep-17 12:06 36.100118 -112.399576 187 30296ft 447kts
16-Sep-17 12:07 35.976910 -112.406102 187 29320ft 438kts
16-Sep-17 12:08 35.859619 -112.411368 187 29159ft 396kts
16-Sep-17 12:09 35.749057 -112.416565 187 29249ft 413kts
16-Sep-17 12:10 35.630722 -112.422015 185 29222ft 442kts
16-Sep-17 12:11 35.510858 -112.430513 189 29201ft 430kts
16-Sep-17 12:12 35.391296 -112.437316 179 29167ft 435kts
16-Sep-17 12:13 35.272391 -112.410914 174 29127ft 434kts
16-Sep-17 12:14 35.153929 -112.385263 175 28680ft 437kts
16-Sep-17 12:15 35.040259 -112.337744 186 27575ft 423kts
16-Sep-17 12:16 34.924438 -112.331795 177 25980ft 415kts
16-Sep-17 12:17 34.813274 -112.311475 174 24372ft 402kts
16-Sep-17 12:18 34.706763 -112.288112 172 22655ft 380kts
16-Sep-17 12:19 34.605073 -112.265617 172 21051ft 369kts
16-Sep-17 12:20 34.505398 -112.243614 172 19510ft 362kts
16-Sep-17 12:21 34.407628 -112.220847 170 17920ft 357kts
16-Sep-17 12:22 34.312980 -112.196107 170 16332ft 333kts
16-Sep-17 12:23 34.227773 -112.174066 169 15638ft 311kts
16-Sep-17 12:24 34.142781 -112.152153 170 15027ft 308kts
16-Sep-17 12:25 34.059129 -112.130776 170 14108ft 309kts
16-Sep-17 12:26 33.977029 -112.110047 169 12696ft 297kts
16-Sep-17 12:27 33.898125 -112.089976 169 11352ft 282kts
16-Sep-17 12:28 33.824800 -112.071457 170 10556ft 276kts
16-Sep-17 12:29 33.749134 -112.052760 172 9940ft 266kts
16-Sep-17 12:30 33.680520 -112.040879 172 9437ft 236kts
16-Sep-17 12:31 33.616637 -112.029446 171 9120ft 234kts
16-Sep-17 12:32 33.554715 -112.005510 151 8363ft 241kts
16-Sep-17 12:33 33.524928 -111.953532 89 7497ft 249kts
16-Sep-17 12:34 33.525100 -111.857561 92 6706ft 250kts
16-Sep-17 12:35 33.524539 -111.785466 90 5646ft 254kts
16-Sep-17 12:36 33.496690 -111.717296 156 4926ft 232kts
16-Sep-17 12:37 33.434330 -111.742455 242 4005ft 217kts
16-Sep-17 12:38 33.429070 -111.797043 267 3963ft 179kts
16-Sep-17 12:39 33.428769 -111.850038 268 3646ft 163kts
16-Sep-17 12:40 33.428825 -111.915359 268 2688ft 159kts
16-Sep-17 12:41 33.428781 -111.955552 265 1865ft 145kts
16-Sep-17 12:42 33.428878 -112.003680 267 1130ft 133kts
16-Sep-17 12:43 33.428008 -112.021876 241 1115ft 0kts
16-Sep-17 12:44 33.428008 -112.021876 241 1115ft 0kts
16-Sep-17 12:45 33.427561 -112.024081 224 1115ft 15kts
16-Sep-17 12:46 33.426447 -112.023379 143 1115ft 0kts
16-Sep-17 12:47 33.426447 -112.023379 143 1115ft 0kts
16-Sep-17 12:48 33.426447 -112.023379 143 1115ft 0kts

Navigation Log

Ident Type
Flight plan parsing failed, navigation log unavailable